createdAt,value
2022-07-25T00:01:49.547Z,82.30
2022-07-25T00:04:17.509Z,82.40
2022-07-25T00:06:45.938Z,82.70
2022-07-25T00:09:12.957Z,82.80
2022-07-25T00:11:40.001Z,83.00
2022-07-25T00:14:07.614Z,83.10
2022-07-25T00:16:35.194Z,83.20
2022-07-25T00:19:02.243Z,83.70
2022-07-25T00:21:29.542Z,83.90
2022-07-25T00:23:56.444Z,83.80
2022-07-25T00:26:23.397Z,84.00
2022-07-25T00:28:50.298Z,84.20
2022-07-25T00:31:17.224Z,84.40
2022-07-25T00:33:44.120Z,84.70
2022-07-25T00:36:11.018Z,84.70
2022-07-25T00:38:37.874Z,84.90
2022-07-25T00:41:05.422Z,85.00
2022-07-25T00:43:32.713Z,85.30
2022-07-25T00:45:59.992Z,85.30
2022-07-25T00:48:29.188Z,85.50
2022-07-25T00:50:57.214Z,85.40
2022-07-25T00:53:25.275Z,85.40
2022-07-25T00:55:52.609Z,85.50
2022-07-25T00:58:19.612Z,85.60
2022-07-25T01:00:47.560Z,85.60
2022-07-25T01:03:15.183Z,85.70
2022-07-25T01:05:42.473Z,85.80
2022-07-25T01:08:09.916Z,85.70
2022-07-25T01:10:37.639Z,85.70
2022-07-25T01:13:05.318Z,85.90
2022-07-25T01:15:32.273Z,85.90
2022-07-25T01:17:59.138Z,86.10
2022-07-25T01:20:28.631Z,85.90
2022-07-25T01:22:56.142Z,86.10
2022-07-25T01:25:24.217Z,86.10
2022-07-25T01:27:55.798Z,86.50
2022-07-25T01:30:24.960Z,86.70
2022-07-25T01:32:52.579Z,86.70
2022-07-25T01:35:19.855Z,87.00
2022-07-25T01:37:46.903Z,87.20
2022-07-25T01:40:14.781Z,87.70
2022-07-25T01:42:43.066Z,87.60
2022-07-25T01:45:11.443Z,87.90
2022-07-25T01:47:38.356Z,87.90
2022-07-25T01:50:06.317Z,88.20
2022-07-25T01:52:33.282Z,88.20
2022-07-25T01:55:00.230Z,88.40
2022-07-25T01:57:30.955Z,88.40
2022-07-25T01:59:59.197Z,88.40
2022-07-25T02:02:26.796Z,88.60
2022-07-25T02:04:53.972Z,88.80
2022-07-25T02:07:20.905Z,88.70
2022-07-25T02:09:47.748Z,88.90
2022-07-25T02:12:14.597Z,88.90
2022-07-25T02:14:41.510Z,88.70
2022-07-25T02:17:08.725Z,89.00
2022-07-25T02:19:36.315Z,89.10
2022-07-25T02:22:03.473Z,89.00
2022-07-25T02:24:30.368Z,89.50
2022-07-25T02:26:57.219Z,89.20
2022-07-25T02:29:24.153Z,89.30
2022-07-25T02:31:53.022Z,89.10
2022-07-25T02:34:19.908Z,89.30
2022-07-25T02:36:46.954Z,89.00
2022-07-25T02:39:14.399Z,89.00
2022-07-25T02:41:41.276Z,88.80
2022-07-25T02:44:08.321Z,88.90
2022-07-25T02:46:35.783Z,88.90
2022-07-25T02:49:03.256Z,88.90
2022-07-25T02:51:30.258Z,88.80
2022-07-25T02:53:58.662Z,88.80
2022-07-25T02:56:29.740Z,88.80
2022-07-25T02:58:57.454Z,88.70
2022-07-25T03:01:24.728Z,88.60
2022-07-25T03:03:51.828Z,88.40
2022-07-25T03:06:18.746Z,88.50
2022-07-25T03:08:45.925Z,88.40
2022-07-25T03:11:13.557Z,88.60
2022-07-25T03:13:40.641Z,88.70
2022-07-25T03:16:08.194Z,88.90
2022-07-25T03:18:35.067Z,89.20
2022-07-25T03:21:02.043Z,89.40
2022-07-25T03:23:29.919Z,89.30
2022-07-25T03:25:57.473Z,89.20
2022-07-25T03:28:24.909Z,89.40
2022-07-25T03:30:52.555Z,89.40
2022-07-25T03:33:19.586Z,89.60
2022-07-25T03:35:46.617Z,89.60
2022-07-25T03:38:13.575Z,90.00
2022-07-25T03:40:40.617Z,90.00
2022-07-25T03:43:07.432Z,90.00
2022-07-25T03:45:34.516Z,90.00
2022-07-25T03:48:02.047Z,90.10
2022-07-25T03:50:29.017Z,90.10
2022-07-25T03:52:55.939Z,90.10
2022-07-25T03:55:22.926Z,90.20
2022-07-25T03:57:49.757Z,90.40
2022-07-25T04:00:17.636Z,90.30
2022-07-25T04:02:44.794Z,90.40
2022-07-25T04:05:11.724Z,90.40
2022-07-25T04:07:38.822Z,90.40
2022-07-25T04:10:07.169Z,90.70
2022-07-25T04:12:34.550Z,90.40
2022-07-25T04:15:01.590Z,90.30
2022-07-25T04:17:28.438Z,90.30
2022-07-25T04:19:55.884Z,90.40
2022-07-25T04:22:23.545Z,90.40
2022-07-25T04:24:50.330Z,90.30
2022-07-25T04:27:17.155Z,90.30
2022-07-25T04:29:44.109Z,90.30
2022-07-25T04:32:11.052Z,90.30
2022-07-25T04:34:37.992Z,90.40
2022-07-25T04:37:04.988Z,90.40
2022-07-25T04:39:31.859Z,90.40
2022-07-25T04:41:58.717Z,90.40
2022-07-25T04:44:25.506Z,90.60
2022-07-25T04:46:52.302Z,90.30
2022-07-25T04:49:19.175Z,90.30
2022-07-25T04:51:46.033Z,90.30
2022-07-25T04:54:12.863Z,90.30
2022-07-25T04:56:39.761Z,90.20
2022-07-25T04:59:07.228Z,90.60
2022-07-25T05:01:35.478Z,90.20
2022-07-25T05:04:02.527Z,90.10
2022-07-25T05:06:29.614Z,90.30
2022-07-25T05:08:56.610Z,90.00
2022-07-25T05:11:23.416Z,90.20
2022-07-25T05:13:50.265Z,89.90
2022-07-25T05:16:17.209Z,89.80
2022-07-25T05:18:44.146Z,89.60
2022-07-25T05:21:12.530Z,89.70
2022-07-25T05:23:39.939Z,89.80
2022-07-25T05:26:06.844Z,89.80
2022-07-25T05:28:34.053Z,89.90
2022-07-25T05:31:01.202Z,90.10
2022-07-25T05:33:28.273Z,90.20
2022-07-25T05:35:55.258Z,90.30
2022-07-25T05:38:22.328Z,90.30
2022-07-25T05:40:52.122Z,90.50
2022-07-25T05:43:19.348Z,90.50
2022-07-25T05:45:47.508Z,90.60
2022-07-25T05:48:17.609Z,90.70
2022-07-25T05:50:46.120Z,90.70
2022-07-25T05:53:13.063Z,90.70
2022-07-25T05:55:40.233Z,90.70
2022-07-25T05:58:09.393Z,91.20
2022-07-25T06:00:36.525Z,90.80
2022-07-25T06:03:03.631Z,90.70
2022-07-25T06:05:30.647Z,90.70
2022-07-25T06:07:57.635Z,90.60
2022-07-25T06:10:24.745Z,90.70
2022-07-25T06:12:51.635Z,90.60
2022-07-25T06:15:22.303Z,90.70
2022-07-25T06:17:54.698Z,90.80
2022-07-25T06:20:22.083Z,90.90
2022-07-25T06:22:49.252Z,91.00
2022-07-25T06:25:16.406Z,90.90
2022-07-25T06:27:43.349Z,91.00
2022-07-25T06:30:19.612Z,91.00
2022-07-25T06:32:48.416Z,91.10
2022-07-25T06:35:16.476Z,91.00
2022-07-25T06:37:43.634Z,91.20
2022-07-25T06:40:11.004Z,91.10
2022-07-25T06:42:41.312Z,91.20
2022-07-25T06:45:09.769Z,91.20
2022-07-25T06:47:37.730Z,91.50
2022-07-25T06:50:07.414Z,91.40
2022-07-25T06:52:34.626Z,91.40
2022-07-25T06:55:02.339Z,91.30
2022-07-25T06:57:29.235Z,92.20
2022-07-25T06:59:56.198Z,91.70
2022-07-25T07:02:23.232Z,91.60
2022-07-25T07:04:50.169Z,91.60
2022-07-25T07:07:17.323Z,91.50
2022-07-25T07:09:44.630Z,91.50
2022-07-25T07:12:11.502Z,91.70
2022-07-25T07:14:38.407Z,91.30
2022-07-25T07:17:05.752Z,91.00
2022-07-25T07:19:32.711Z,90.70
2022-07-25T07:21:59.842Z,90.80
2022-07-25T07:24:26.862Z,91.00
2022-07-25T07:26:54.956Z,91.00
2022-07-25T07:29:21.939Z,90.90
2022-07-25T07:31:49.088Z,90.90
2022-07-25T07:34:16.403Z,91.10
2022-07-25T07:36:43.943Z,90.70
2022-07-25T07:39:10.914Z,90.60
2022-07-25T07:41:38.012Z,90.70
2022-07-25T07:44:05.936Z,90.80
2022-07-25T07:46:32.924Z,90.60
2022-07-25T07:48:59.929Z,90.20
2022-07-25T07:51:26.836Z,90.40
2022-07-25T07:54:12.209Z,90.20
2022-07-25T07:56:39.488Z,90.30
2022-07-25T07:59:06.607Z,90.40
2022-07-25T08:01:34.547Z,90.50
2022-07-25T08:04:01.490Z,90.30
2022-07-25T08:06:29.055Z,90.20
2022-07-25T08:08:55.924Z,90.30
2022-07-25T08:11:22.908Z,90.20
2022-07-25T08:13:49.751Z,90.20
2022-07-25T08:16:16.685Z,90.10
2022-07-25T08:18:43.733Z,90.00
2022-07-25T08:21:14.497Z,90.00
2022-07-25T08:23:41.470Z,90.00
2022-07-25T08:26:08.389Z,89.70
2022-07-25T08:28:35.357Z,90.00
2022-07-25T08:31:02.358Z,89.50
2022-07-25T08:33:29.446Z,89.30
2022-07-25T08:35:58.608Z,89.20
2022-07-25T08:38:27.113Z,89.10
2022-07-25T08:40:55.694Z,88.90
2022-07-25T08:43:23.087Z,89.50
2022-07-25T08:45:54.482Z,90.00
2022-07-25T08:48:23.709Z,89.30
2022-07-25T08:50:51.229Z,89.30
2022-07-25T08:53:36.084Z,88.70
2022-07-25T08:56:13.406Z,89.20
2022-07-25T08:58:44.068Z,87.90
2022-07-25T09:01:11.648Z,88.00
2022-07-25T09:03:38.938Z,87.50
2022-07-25T09:06:35.292Z,87.60
2022-07-25T09:09:05.403Z,87.60
2022-07-25T09:11:35.102Z,87.80
2022-07-25T09:14:06.911Z,87.50
2022-07-25T09:16:46.067Z,86.40
2022-07-25T09:19:21.686Z,86.70
2022-07-25T09:22:01.976Z,86.70
2022-07-25T09:24:30.078Z,86.70
2022-07-25T09:27:00.185Z,87.00
2022-07-25T09:29:32.417Z,87.30
2022-07-25T09:32:01.217Z,87.40
2022-07-25T09:34:42.339Z,87.70
2022-07-25T09:37:12.416Z,87.90
2022-07-25T09:39:49.339Z,87.60
2022-07-25T09:42:25.594Z,86.70
2022-07-25T09:45:11.350Z,86.80
2022-07-25T09:47:52.125Z,87.10
2022-07-25T09:50:20.034Z,87.50
2022-07-25T09:52:47.550Z,87.00
2022-07-25T09:55:15.748Z,86.10
2022-07-25T09:57:45.146Z,85.30
2022-07-25T10:00:19.043Z,85.60
2022-07-25T10:02:50.940Z,85.40
2022-07-25T10:05:23.849Z,85.00
2022-07-25T10:07:54.169Z,84.40
2022-07-25T10:10:32.044Z,84.20
2022-07-25T10:13:00.217Z,83.70
2022-07-25T10:15:28.234Z,84.40
2022-07-25T10:18:06.834Z,83.20
2022-07-25T10:20:34.174Z,82.90
2022-07-25T10:23:01.116Z,82.80
2022-07-25T10:25:28.108Z,82.70
2022-07-25T10:28:06.506Z,81.30
2022-07-25T10:30:38.765Z,81.50
2022-07-25T10:33:17.739Z,81.30
2022-07-25T10:35:45.584Z,80.30
2022-07-25T10:38:12.862Z,79.70
2022-07-25T10:40:44.653Z,79.50
2022-07-25T10:43:22.437Z,76.30
2022-07-25T10:45:58.091Z,77.90
2022-07-25T10:48:27.357Z,77.60
2022-07-25T10:50:59.238Z,77.90
2022-07-25T10:53:48.370Z,78.30
2022-07-25T10:56:20.056Z,78.50
2022-07-25T10:58:54.145Z,77.80
2022-07-25T11:01:27.855Z,76.60
2022-07-25T11:04:05.992Z,76.60
2022-07-25T11:06:40.783Z,76.10
2022-07-25T11:09:26.551Z,75.70
2022-07-25T11:11:57.270Z,75.10
2022-07-25T11:14:25.482Z,75.00
2022-07-25T11:16:54.075Z,74.60
2022-07-25T11:19:23.667Z,76.70
2022-07-25T11:21:58.898Z,76.30
2022-07-25T11:24:45.714Z,76.00
2022-07-25T11:27:24.935Z,74.40
2022-07-25T11:29:52.117Z,75.80
2022-07-25T11:32:19.743Z,74.30
2022-07-25T11:34:52.297Z,74.80
2022-07-25T11:37:20.836Z,75.00
2022-07-25T11:39:48.740Z,73.80
2022-07-25T11:42:18.243Z,73.80
2022-07-25T11:44:50.377Z,74.10
2022-07-25T11:47:31.053Z,75.30
2022-07-25T11:50:01.505Z,74.80
2022-07-25T11:52:37.172Z,73.80
2022-07-25T11:55:09.750Z,73.10
2022-07-25T11:57:40.012Z,73.30
2022-07-25T12:00:17.713Z,72.70
2022-07-25T12:02:45.638Z,72.00
2022-07-25T12:05:15.210Z,73.50
2022-07-25T12:07:46.351Z,73.20
2022-07-25T12:10:17.235Z,72.30
2022-07-25T12:12:49.318Z,70.90
2022-07-25T12:15:23.671Z,71.50
2022-07-25T12:17:56.008Z,72.30
2022-07-25T12:20:28.342Z,72.00
2022-07-25T12:22:57.490Z,71.50
2022-07-25T12:25:36.994Z,71.60
2022-07-25T12:28:04.321Z,73.10
2022-07-25T12:30:31.750Z,72.70
2022-07-25T12:33:00.012Z,71.90
2022-07-25T12:35:27.468Z,72.60
2022-07-25T12:37:54.640Z,72.40
2022-07-25T12:40:22.331Z,73.20
2022-07-25T12:42:49.694Z,72.30
2022-07-25T12:45:17.919Z,73.20
2022-07-25T12:47:46.378Z,72.20
2022-07-25T12:50:14.146Z,72.40
2022-07-25T12:52:42.236Z,72.40
2022-07-25T12:55:12.025Z,73.20
2022-07-25T12:57:39.189Z,72.80
2022-07-25T13:00:08.986Z,73.40
2022-07-25T13:02:35.911Z,72.70
2022-07-25T13:05:03.423Z,73.10
2022-07-25T13:07:30.295Z,72.70
2022-07-25T13:09:57.083Z,73.10
2022-07-25T13:12:24.288Z,72.60
2022-07-25T13:14:52.025Z,72.50
2022-07-25T13:17:22.460Z,71.60
2022-07-25T13:19:53.686Z,72.70
2022-07-25T13:22:20.551Z,72.80
2022-07-25T13:24:47.431Z,71.60
2022-07-25T13:27:14.426Z,71.00
2022-07-25T13:29:41.275Z,71.70
2022-07-25T13:32:10.534Z,71.90
2022-07-25T13:34:37.405Z,71.60
2022-07-25T13:37:04.577Z,71.50
2022-07-25T13:39:31.655Z,72.10
2022-07-25T13:41:58.441Z,71.30
2022-07-25T13:44:25.272Z,71.60
2022-07-25T13:46:52.153Z,71.80
2022-07-25T13:49:19.104Z,70.90
2022-07-25T13:51:45.997Z,70.10
2022-07-25T13:54:13.170Z,69.80
2022-07-25T13:56:41.488Z,69.80
2022-07-25T13:59:08.900Z,69.80
2022-07-25T14:01:36.132Z,69.50
2022-07-25T14:04:03.152Z,69.50
2022-07-25T14:06:30.050Z,69.80
2022-07-25T14:08:56.954Z,71.20
2022-07-25T14:11:27.347Z,72.10
2022-07-25T14:13:57.756Z,70.90
2022-07-25T14:16:24.871Z,71.10
2022-07-25T14:18:51.842Z,71.10
2022-07-25T14:21:18.692Z,71.50
2022-07-25T14:23:45.538Z,72.00
2022-07-25T14:26:13.196Z,72.40
2022-07-25T14:28:40.092Z,72.20
2022-07-25T14:31:07.064Z,72.60
2022-07-25T14:33:37.931Z,72.30
2022-07-25T14:36:05.010Z,71.30
2022-07-25T14:38:32.063Z,71.80
2022-07-25T14:40:59.148Z,71.60
2022-07-25T14:43:26.101Z,72.00
2022-07-25T14:45:52.990Z,72.50
2022-07-25T14:48:19.962Z,72.40
2022-07-25T14:50:46.776Z,72.40
2022-07-25T14:53:13.647Z,72.50
2022-07-25T14:55:40.676Z,71.90
2022-07-25T14:58:07.583Z,72.10
2022-07-25T15:00:34.564Z,72.10
2022-07-25T15:03:01.705Z,71.50
2022-07-25T15:05:28.616Z,72.20
2022-07-25T15:07:55.435Z,72.20
2022-07-25T15:10:22.312Z,72.20
2022-07-25T15:12:54.277Z,72.50
2022-07-25T15:15:29.090Z,72.70
2022-07-25T15:17:56.008Z,72.40
2022-07-25T15:20:22.912Z,71.50
2022-07-25T15:22:49.795Z,72.20
2022-07-25T15:25:57.965Z,72.40
2022-07-25T15:28:03.591Z,72.40
2022-07-25T15:30:30.886Z,70.70
2022-07-25T15:32:57.789Z,71.60
2022-07-25T15:35:24.704Z,72.50
2022-07-25T15:37:52.183Z,71.70
2022-07-25T15:40:19.098Z,72.40
2022-07-25T15:42:45.938Z,72.80
2022-07-25T15:45:32.565Z,73.40
2022-07-25T15:48:00.484Z,73.50
2022-07-25T15:50:27.313Z,73.50
2022-07-25T15:52:54.129Z,73.30
2022-07-25T15:55:21.097Z,73.70
2022-07-25T15:57:47.915Z,73.00
2022-07-25T16:00:14.903Z,73.30
2022-07-25T16:02:41.754Z,73.10
2022-07-25T16:05:08.865Z,73.60
2022-07-25T16:07:35.713Z,73.90
2022-07-25T16:10:02.569Z,72.90
2022-07-25T16:12:29.432Z,74.20
2022-07-25T16:14:56.340Z,74.50
2022-07-25T16:17:23.745Z,75.50
2022-07-25T16:19:50.573Z,75.60
2022-07-25T16:22:17.380Z,75.30
2022-07-25T16:24:44.433Z,75.70
2022-07-25T16:27:11.535Z,76.10
2022-07-25T16:29:39.951Z,75.90
2022-07-25T16:32:08.007Z,76.10
2022-07-25T16:34:35.574Z,75.90
2022-07-25T16:37:03.551Z,76.00
2022-07-25T16:39:30.637Z,76.80
2022-07-25T16:41:57.458Z,76.30
2022-07-25T16:44:24.275Z,75.90
2022-07-25T16:46:51.297Z,76.20
2022-07-25T16:49:18.515Z,76.00
2022-07-25T16:51:46.149Z,76.90
2022-07-25T16:54:12.963Z,76.90
2022-07-25T16:56:40.624Z,76.60
2022-07-25T16:59:08.595Z,76.70
2022-07-25T17:01:35.896Z,76.70
2022-07-25T17:04:02.960Z,76.90
2022-07-25T17:06:29.862Z,77.10
2022-07-25T17:08:56.946Z,77.30
2022-07-25T17:11:23.797Z,77.60
2022-07-25T17:13:50.642Z,77.30
2022-07-25T17:16:17.545Z,77.40
2022-07-25T17:18:45.147Z,76.90
2022-07-25T17:21:15.177Z,77.00
2022-07-25T17:23:42.362Z,77.60
2022-07-25T17:26:09.262Z,77.90
2022-07-25T17:28:36.530Z,78.30
2022-07-25T17:31:03.488Z,78.50
2022-07-25T17:33:30.487Z,78.80
2022-07-25T17:35:59.071Z,79.20
2022-07-25T17:38:28.436Z,79.40
2022-07-25T17:40:57.288Z,80.30
2022-07-25T17:43:24.200Z,80.60
2022-07-25T17:45:51.260Z,81.50
2022-07-25T17:48:18.099Z,81.90
2022-07-25T17:50:45.371Z,81.90
2022-07-25T17:53:13.625Z,82.80
2022-07-25T17:55:44.159Z,83.00
2022-07-25T17:58:11.851Z,83.30
2022-07-25T18:00:39.212Z,84.20
2022-07-25T18:03:06.581Z,84.50
2022-07-25T18:05:33.662Z,85.00
2022-07-25T18:08:02.761Z,85.80
2022-07-25T18:10:30.342Z,86.10
2022-07-25T18:13:00.227Z,86.80
2022-07-25T18:15:27.554Z,87.10
2022-07-25T18:17:54.556Z,87.70
2022-07-25T18:20:21.470Z,88.30
2022-07-25T18:22:48.474Z,88.40
2022-07-25T18:25:15.901Z,88.70
2022-07-25T18:27:46.936Z,88.80
2022-07-25T18:30:15.974Z,89.10
2022-07-25T18:32:43.008Z,89.40
2022-07-25T18:35:11.107Z,89.50
2022-07-25T18:37:38.516Z,89.50
2022-07-25T18:40:07.243Z,89.20
2022-07-25T18:42:35.313Z,89.00
2022-07-25T18:45:03.421Z,88.60
2022-07-25T18:47:31.084Z,88.50
2022-07-25T18:49:59.483Z,87.70
2022-07-25T18:52:26.731Z,86.70
2022-07-25T18:54:53.534Z,85.80
2022-07-25T18:57:20.400Z,85.30
2022-07-25T18:59:47.523Z,85.00
2022-07-25T19:02:14.416Z,85.20
2022-07-25T19:04:41.400Z,84.90
2022-07-25T19:07:09.179Z,85.20
2022-07-25T19:09:36.065Z,85.20
2022-07-25T19:12:02.948Z,85.00
2022-07-25T19:14:30.706Z,85.30
2022-07-25T19:16:58.827Z,85.00
2022-07-25T19:19:26.889Z,85.10
2022-07-25T19:21:53.858Z,85.10
2022-07-25T19:24:21.156Z,85.30
2022-07-25T19:26:48.757Z,85.40
2022-07-25T19:29:16.906Z,85.00
2022-07-25T19:31:44.607Z,84.90
2022-07-25T19:34:12.132Z,85.00
2022-07-25T19:36:39.372Z,85.10
2022-07-25T19:39:06.843Z,84.60
2022-07-25T19:41:33.768Z,84.10
2022-07-25T19:44:00.741Z,84.20
2022-07-25T19:46:31.332Z,84.80
2022-07-25T19:48:58.380Z,85.10
2022-07-25T19:51:25.544Z,85.40
2022-07-25T19:53:52.613Z,85.80
2022-07-25T19:56:20.335Z,85.90
2022-07-25T19:58:47.182Z,85.00
2022-07-25T20:01:14.077Z,84.40
2022-07-25T20:03:41.664Z,83.60
2022-07-25T20:06:09.419Z,84.40
2022-07-25T20:08:39.423Z,82.20
2022-07-25T20:11:07.695Z,81.70
2022-07-25T20:13:35.670Z,81.20
2022-07-25T20:16:03.938Z,82.00
2022-07-25T20:18:31.135Z,81.80
2022-07-25T20:20:58.239Z,81.20
2022-07-25T20:23:25.223Z,81.00
2022-07-25T20:25:52.267Z,82.00
2022-07-25T20:28:19.183Z,81.40
2022-07-25T20:30:46.136Z,81.10
2022-07-25T20:33:13.126Z,81.70
2022-07-25T20:35:40.031Z,81.50
2022-07-25T20:38:08.986Z,82.20
2022-07-25T20:40:36.729Z,81.50
2022-07-25T20:43:07.567Z,81.30
2022-07-25T20:45:34.503Z,80.90
2022-07-25T20:48:01.420Z,80.50
2022-07-25T20:50:28.378Z,80.00
2022-07-25T20:52:55.237Z,80.40
2022-07-25T20:55:22.377Z,79.70
2022-07-25T20:57:50.845Z,80.00
2022-07-25T21:00:18.205Z,79.40
2022-07-25T21:02:45.128Z,79.50
2022-07-25T21:05:12.004Z,79.00
2022-07-25T21:07:38.916Z,79.20
2022-07-25T21:10:06.222Z,79.00
2022-07-25T21:12:33.372Z,78.30
2022-07-25T21:15:01.336Z,78.50
2022-07-25T21:17:28.360Z,77.70
2022-07-25T21:19:55.386Z,78.70
2022-07-25T21:22:22.279Z,78.90
2022-07-25T21:24:52.333Z,79.20
2022-07-25T21:27:19.657Z,79.10
2022-07-25T21:29:46.594Z,79.00
2022-07-25T21:32:13.880Z,78.80
2022-07-25T21:34:41.770Z,78.50
2022-07-25T21:37:08.842Z,78.80
2022-07-25T21:39:35.854Z,78.50
2022-07-25T21:42:02.713Z,79.30
2022-07-25T21:44:31.815Z,79.30
2022-07-25T21:46:58.630Z,79.40
2022-07-25T21:49:44.030Z,79.60
2022-07-25T21:52:13.884Z,79.10
2022-07-25T21:54:44.677Z,78.20
2022-07-25T21:57:13.402Z,78.10
2022-07-25T21:59:44.969Z,78.00
2022-07-25T22:02:12.847Z,78.60
2022-07-25T22:04:39.936Z,78.50
2022-07-25T22:07:07.814Z,78.30
2022-07-25T22:09:34.844Z,79.10
2022-07-25T22:12:01.939Z,78.80
2022-07-25T22:14:28.792Z,78.70
2022-07-25T22:16:55.786Z,77.80
2022-07-25T22:19:22.872Z,77.90
2022-07-25T22:21:50.379Z,78.10
2022-07-25T22:24:17.453Z,78.00
2022-07-25T22:26:44.351Z,78.40
2022-07-25T22:29:12.034Z,78.40
2022-07-25T22:31:39.434Z,78.50
2022-07-25T22:34:06.596Z,77.90
2022-07-25T22:36:33.463Z,77.80
2022-07-25T22:39:00.290Z,78.70
2022-07-25T22:41:27.763Z,77.90
2022-07-25T22:43:57.657Z,78.20
2022-07-25T22:46:28.374Z,78.00
2022-07-25T22:48:55.577Z,77.90
2022-07-25T22:51:22.617Z,78.30
2022-07-25T22:53:49.580Z,78.30
2022-07-25T22:56:17.017Z,78.50
2022-07-25T22:58:44.186Z,78.80
2022-07-25T23:01:13.790Z,78.70
2022-07-25T23:03:40.682Z,78.40
2022-07-25T23:06:07.716Z,78.80
2022-07-25T23:08:34.655Z,78.70
2022-07-25T23:11:03.422Z,78.30
2022-07-25T23:13:30.389Z,78.10
2022-07-25T23:15:57.314Z,78.90
2022-07-25T23:18:24.218Z,78.70
2022-07-25T23:20:51.065Z,78.80
2022-07-25T23:23:18.026Z,78.60
2022-07-25T23:25:44.868Z,78.40
2022-07-25T23:28:11.759Z,78.50
2022-07-25T23:30:40.648Z,78.50
2022-07-25T23:33:08.425Z,79.00
2022-07-25T23:35:35.468Z,79.20
2022-07-25T23:38:02.852Z,79.30
2022-07-25T23:40:30.410Z,79.60
2022-07-25T23:42:57.251Z,80.20
2022-07-25T23:45:25.441Z,80.50
2022-07-25T23:47:55.876Z,81.00
2022-07-25T23:50:23.843Z,81.00
2022-07-25T23:52:51.333Z,80.90
2022-07-25T23:55:18.221Z,81.10
2022-07-25T23:57:45.088Z,81.10
